createdAt,value
2023-11-22T00:01:17.039Z,99808.03
2023-11-22T00:04:20.000Z,99811.56
2023-11-22T00:07:24.585Z,99816.25
2023-11-22T00:10:27.485Z,99812.94
2023-11-22T00:13:30.381Z,99817.59
2023-11-22T00:16:40.031Z,99817.81
2023-11-22T00:19:45.250Z,99823.84
2023-11-22T00:22:48.426Z,99825.81
2023-11-22T00:25:50.877Z,99825.94
2023-11-22T00:28:54.985Z,99821.78
2023-11-22T00:31:57.442Z,99825.41
2023-11-22T00:35:00.370Z,99825.72
2023-11-22T00:38:02.916Z,99831.13
2023-11-22T00:41:06.481Z,99825.09
2023-11-22T00:44:09.085Z,99824.69
2023-11-22T00:47:12.937Z,99817.84
2023-11-22T00:50:15.457Z,99823.03
2023-11-22T00:53:19.656Z,99835.16
2023-11-22T00:56:22.082Z,99820.78
2023-11-22T00:59:27.874Z,99818.47
2023-11-22T01:02:35.687Z,99818.91
2023-11-22T01:05:38.845Z,99825.22
2023-11-22T01:08:43.808Z,99831.34
2023-11-22T01:11:46.838Z,99834.84
2023-11-22T01:14:49.319Z,99839.72
2023-11-22T01:17:54.186Z,99833.63
2023-11-22T01:20:56.573Z,99830.31
2023-11-22T01:23:59.838Z,99833.00
2023-11-22T01:27:02.273Z,99831.03
2023-11-22T01:30:08.775Z,99828.44
2023-11-22T01:33:12.509Z,99835.47
2023-11-22T01:36:16.497Z,99828.44
2023-11-22T01:39:19.784Z,99823.25
2023-11-22T01:42:27.717Z,99823.97
2023-11-22T01:45:30.915Z,99824.06
2023-11-22T01:48:33.796Z,99823.97
2023-11-22T01:51:36.340Z,99822.09
2023-11-22T01:54:39.677Z,99823.69
2023-11-22T01:57:42.104Z,99834.44
2023-11-22T02:00:53.023Z,99824.72
2023-11-22T02:03:56.652Z,99825.53
2023-11-22T02:06:59.367Z,99823.03
2023-11-22T02:10:08.766Z,99828.22
2023-11-22T02:13:11.512Z,99821.38
2023-11-22T02:16:19.132Z,99816.59
2023-11-22T02:19:22.154Z,99814.53
2023-11-22T02:22:25.111Z,99811.44
2023-11-22T02:25:27.809Z,99818.56
2023-11-22T02:28:30.216Z,99831.53
2023-11-22T02:31:32.949Z,99835.88
2023-11-22T02:34:36.408Z,99847.91
2023-11-22T02:37:51.292Z,99844.59
2023-11-22T02:41:14.782Z,99856.81
2023-11-22T02:44:32.454Z,99852.66
2023-11-22T02:47:35.634Z,99865.38
2023-11-22T02:50:43.239Z,99863.94
2023-11-22T02:53:47.170Z,99864.84
2023-11-22T02:56:52.446Z,99869.41
2023-11-22T02:59:57.520Z,99860.47
2023-11-22T03:03:00.498Z,99855.69
2023-11-22T03:06:03.121Z,99858.88
2023-11-22T03:09:09.598Z,99861.66
2023-11-22T03:12:13.984Z,99866.63
2023-11-22T03:15:17.138Z,99868.62
2023-11-22T03:18:19.563Z,99872.44
2023-11-22T03:21:22.197Z,99879.94
2023-11-22T03:24:28.363Z,99884.16
2023-11-22T03:27:33.092Z,99885.38
2023-11-22T03:30:35.661Z,99888.38
2023-11-22T03:33:38.456Z,99886.09
2023-11-22T03:36:41.831Z,99894.31
2023-11-22T03:39:49.838Z,99887.97
2023-11-22T03:42:58.484Z,99900.75
2023-11-22T03:46:04.157Z,99904.00
2023-11-22T03:49:10.689Z,99906.78
2023-11-22T03:52:13.607Z,99899.47
2023-11-22T03:55:16.029Z,99920.38
2023-11-22T03:58:20.320Z,99922.22
2023-11-22T04:01:24.488Z,99923.16
2023-11-22T04:04:27.502Z,99924.63
2023-11-22T04:07:29.976Z,99933.88
2023-11-22T04:10:32.733Z,99939.56
2023-11-22T04:13:38.225Z,99935.03
2023-11-22T04:16:41.744Z,99946.94
2023-11-22T04:19:47.678Z,99959.41
2023-11-22T04:22:50.802Z,99960.03
2023-11-22T04:25:53.169Z,99973.22
2023-11-22T04:28:57.596Z,99975.12
2023-11-22T04:32:00.043Z,99978.37
2023-11-22T04:35:06.468Z,99983.94
2023-11-22T04:38:16.641Z,99986.28
2023-11-22T04:41:19.742Z,99987.94
2023-11-22T04:44:22.227Z,99986.28
2023-11-22T04:47:25.031Z,99998.56
2023-11-22T04:50:33.411Z,100002.53
2023-11-22T04:53:36.927Z,100012.91
2023-11-22T04:56:42.239Z,100007.75
2023-11-22T04:59:45.025Z,100011.62
2023-11-22T05:02:49.455Z,100010.16
2023-11-22T05:05:52.161Z,100011.06
2023-11-22T05:08:59.544Z,100019.28
2023-11-22T05:12:02.244Z,100019.63
2023-11-22T05:15:05.207Z,100021.03
2023-11-22T05:18:10.286Z,100028.59
2023-11-22T05:21:12.994Z,100029.97
2023-11-22T05:24:18.766Z,100036.91
2023-11-22T05:27:23.571Z,100028.94
2023-11-22T05:30:26.212Z,100022.84
2023-11-22T05:33:28.746Z,100031.16
2023-11-22T05:36:31.440Z,100030.22
2023-11-22T05:39:33.824Z,100044.81
2023-11-22T05:42:37.031Z,100049.44
2023-11-22T05:45:50.049Z,100055.66
2023-11-22T05:48:53.487Z,100064.63
2023-11-22T05:51:55.985Z,100060.53
2023-11-22T05:55:00.656Z,100064.25
2023-11-22T05:58:03.092Z,100067.91
2023-11-22T06:01:09.491Z,100066.03
2023-11-22T06:04:12.663Z,100072.22
2023-11-22T06:07:15.265Z,100081.69
2023-11-22T06:10:17.988Z,100082.16
2023-11-22T06:13:20.683Z,100094.00
2023-11-22T06:16:23.616Z,100094.41
2023-11-22T06:19:26.411Z,100105.69
2023-11-22T06:22:29.352Z,100111.50
2023-11-22T06:25:32.265Z,100130.09
2023-11-22T06:28:36.273Z,100131.75
2023-11-22T06:31:41.801Z,100125.44
2023-11-22T06:34:44.833Z,100128.59
2023-11-22T06:37:47.305Z,100133.69
2023-11-22T06:40:50.054Z,100146.72
2023-11-22T06:43:52.606Z,100148.84
2023-11-22T06:46:58.374Z,100146.47
2023-11-22T06:50:01.464Z,100165.97
2023-11-22T06:53:04.898Z,100174.12
2023-11-22T06:56:07.683Z,100163.28
2023-11-22T06:59:10.798Z,100179.47
2023-11-22T07:02:13.454Z,100182.91
2023-11-22T07:05:16.663Z,100185.03
2023-11-22T07:08:19.946Z,100195.38
2023-11-22T07:11:26.164Z,100199.06
2023-11-22T07:14:30.283Z,100202.78
2023-11-22T07:17:34.769Z,100212.03
2023-11-22T07:20:37.392Z,100196.97
2023-11-22T07:23:42.961Z,100198.31
2023-11-22T07:26:46.241Z,100198.22
2023-11-22T07:29:49.241Z,100203.91
2023-11-22T07:32:53.395Z,100205.19
2023-11-22T07:35:56.405Z,100215.06
2023-11-22T07:39:01.544Z,100213.06
2023-11-22T07:42:04.683Z,100217.88
2023-11-22T07:45:09.006Z,100221.72
2023-11-22T07:48:17.461Z,100228.91
2023-11-22T07:51:19.888Z,100233.37
2023-11-22T07:54:23.874Z,100230.94
2023-11-22T07:57:26.873Z,100234.59
2023-11-22T08:00:30.979Z,100230.94
2023-11-22T08:03:36.088Z,100238.72
2023-11-22T08:06:39.814Z,100250.16
2023-11-22T08:09:42.938Z,100244.03
2023-11-22T08:12:46.593Z,100262.53
2023-11-22T08:15:52.741Z,100259.31
2023-11-22T08:18:55.297Z,100258.44
2023-11-22T08:21:58.521Z,100267.16
2023-11-22T08:25:00.930Z,100257.63
2023-11-22T08:28:03.857Z,100247.25
2023-11-22T08:31:10.892Z,100268.47
2023-11-22T08:34:14.640Z,100268.97
2023-11-22T08:37:17.357Z,100277.81
2023-11-22T08:40:22.081Z,100275.16
2023-11-22T08:43:27.097Z,100279.94
2023-11-22T08:46:29.965Z,100277.47
2023-11-22T08:49:32.399Z,100275.88
2023-11-22T08:52:35.893Z,100280.53
2023-11-22T08:55:38.503Z,100289.50
2023-11-22T08:58:41.361Z,100298.03
2023-11-22T09:01:46.745Z,100296.84
2023-11-22T09:04:49.806Z,100303.47
2023-11-22T09:07:52.464Z,100310.66
2023-11-22T09:10:55.745Z,100304.59
2023-11-22T09:13:58.423Z,100318.84
2023-11-22T09:17:02.569Z,100320.03
2023-11-22T09:20:08.138Z,100324.53
2023-11-22T09:23:11.598Z,100320.53
2023-11-22T09:26:14.278Z,100314.03
2023-11-22T09:29:16.973Z,100330.47
2023-11-22T09:32:19.673Z,100337.22
2023-11-22T09:35:23.129Z,100327.31
2023-11-22T09:38:26.104Z,100329.31
2023-11-22T09:41:30.055Z,100326.06
2023-11-22T09:44:32.720Z,100326.97
2023-11-22T09:47:35.894Z,100325.63
2023-11-22T09:50:38.381Z,100324.50
2023-11-22T09:53:44.002Z,100322.59
2023-11-22T09:56:52.043Z,100316.62
2023-11-22T09:59:58.284Z,100326.69
2023-11-22T10:03:00.924Z,100326.88
2023-11-22T10:06:05.888Z,100322.94
2023-11-22T10:09:10.221Z,100337.28
2023-11-22T10:12:14.238Z,100334.88
2023-11-22T10:15:20.208Z,100339.41
2023-11-22T10:18:23.615Z,100336.44
2023-11-22T10:21:31.797Z,100336.88
2023-11-22T10:24:36.010Z,100348.22
2023-11-22T10:27:39.158Z,100357.62
2023-11-22T10:30:42.448Z,100348.50
2023-11-22T10:33:44.989Z,100359.69
2023-11-22T10:36:48.637Z,100354.56
2023-11-22T10:39:53.955Z,100359.31
2023-11-22T10:42:58.738Z,100368.28
2023-11-22T10:46:03.140Z,100373.22
2023-11-22T10:49:07.198Z,100376.81
2023-11-22T10:52:14.401Z,100375.87
2023-11-22T10:55:19.933Z,100396.47
2023-11-22T10:58:22.671Z,100394.09
2023-11-22T11:01:32.839Z,100395.59
2023-11-22T11:04:40.621Z,100398.38
2023-11-22T11:07:49.979Z,100393.78
2023-11-22T11:10:54.037Z,100404.41
2023-11-22T11:13:57.778Z,100403.37
2023-11-22T11:17:00.431Z,100406.59
2023-11-22T11:20:07.235Z,100415.72
2023-11-22T11:23:13.672Z,100418.69
2023-11-22T11:26:20.042Z,100419.38
2023-11-22T11:29:41.960Z,100421.31
2023-11-22T11:32:47.782Z,100429.47
2023-11-22T11:35:51.317Z,100434.75
2023-11-22T11:38:55.833Z,100439.72
2023-11-22T11:42:16.239Z,100433.69
2023-11-22T11:45:21.577Z,100424.81
2023-11-22T11:48:26.328Z,100439.84
2023-11-22T11:51:30.202Z,100441.66
2023-11-22T11:54:32.963Z,100437.09
2023-11-22T11:57:37.363Z,100440.59
2023-11-22T12:00:42.616Z,100454.56
2023-11-22T12:03:45.733Z,100440.59
2023-11-22T12:06:48.277Z,100453.94
2023-11-22T12:09:50.969Z,100453.50
2023-11-22T12:12:53.476Z,100468.25
2023-11-22T12:15:57.095Z,100483.03
2023-11-22T12:19:00.045Z,100491.84
2023-11-22T12:22:03.325Z,100485.94
2023-11-22T12:25:06.432Z,100489.72
2023-11-22T12:28:11.634Z,100496.66
2023-11-22T12:31:16.261Z,100496.09
2023-11-22T12:34:19.369Z,100492.41
2023-11-22T12:37:24.318Z,100496.19
2023-11-22T12:40:29.405Z,100495.28
2023-11-22T12:43:36.965Z,100507.84
2023-11-22T12:46:49.039Z,100519.28
2023-11-22T12:49:51.406Z,100521.66
2023-11-22T12:52:54.101Z,100525.53
2023-11-22T12:55:57.267Z,100530.44
2023-11-22T12:59:00.501Z,100535.19
2023-11-22T13:02:03.850Z,100534.84
2023-11-22T13:05:12.147Z,100547.66
2023-11-22T13:08:15.384Z,100557.88
2023-11-22T13:11:20.394Z,100551.31
2023-11-22T13:14:24.639Z,100559.25
2023-11-22T13:17:27.565Z,100563.22
2023-11-22T13:20:30.094Z,100560.06
2023-11-22T13:23:34.223Z,100568.91
2023-11-22T13:26:36.673Z,100564.03
2023-11-22T13:29:39.278Z,100562.28
2023-11-22T13:32:44.146Z,100565.91
2023-11-22T13:35:48.754Z,100578.28
2023-11-22T13:38:56.581Z,100576.66
2023-11-22T13:41:59.416Z,100579.22
2023-11-22T13:45:01.838Z,100578.66
2023-11-22T13:48:07.696Z,100583.72
2023-11-22T13:51:12.218Z,100596.59
2023-11-22T13:54:15.579Z,100582.81
2023-11-22T13:57:17.965Z,100593.09
2023-11-22T14:00:25.822Z,100597.50
2023-11-22T14:03:29.354Z,100598.41
2023-11-22T14:06:32.119Z,100586.91
2023-11-22T14:09:38.064Z,100592.87
2023-11-22T14:12:40.594Z,100614.09
2023-11-22T14:15:43.309Z,100618.94
2023-11-22T14:18:46.281Z,100614.25
2023-11-22T14:21:49.002Z,100622.41
2023-11-22T14:24:54.643Z,100618.22
2023-11-22T14:27:58.427Z,100612.12
2023-11-22T14:31:00.834Z,100613.41
2023-11-22T14:34:06.608Z,100610.81
2023-11-22T14:37:09.279Z,100612.47
2023-11-22T14:40:14.981Z,100614.91
2023-11-22T14:43:17.749Z,100615.28
2023-11-22T14:46:21.150Z,100619.66
2023-11-22T14:49:23.603Z,100633.00
2023-11-22T14:52:26.235Z,100633.53
2023-11-22T14:55:30.534Z,100653.78
2023-11-22T14:58:33.264Z,100657.56
2023-11-22T15:01:36.182Z,100657.78
2023-11-22T15:04:44.274Z,100661.94
2023-11-22T15:07:47.402Z,100661.59
2023-11-22T15:10:51.386Z,100661.34
2023-11-22T15:13:54.387Z,100687.09
2023-11-22T15:16:57.227Z,100687.31
2023-11-22T15:19:59.806Z,100694.37
2023-11-22T15:23:04.473Z,100693.06
2023-11-22T15:26:09.696Z,100690.50
2023-11-22T15:29:13.340Z,100704.69
2023-11-22T15:32:16.446Z,100704.25
2023-11-22T15:35:19.412Z,100709.59
2023-11-22T15:38:23.570Z,100712.28
2023-11-22T15:41:28.283Z,100711.72
2023-11-22T15:44:35.074Z,100722.97
2023-11-22T15:47:38.772Z,100720.47
2023-11-22T15:50:41.546Z,100725.88
2023-11-22T15:53:44.769Z,100737.94
2023-11-22T15:56:47.386Z,100734.56
2023-11-22T15:59:52.969Z,100736.50
2023-11-22T16:02:55.480Z,100750.09
2023-11-22T16:05:58.302Z,100760.56
2023-11-22T16:09:01.192Z,100765.22
2023-11-22T16:12:04.101Z,100765.50
2023-11-22T16:15:06.916Z,100768.75
2023-11-22T16:18:12.627Z,100765.63
2023-11-22T16:21:17.462Z,100769.47
2023-11-22T16:24:20.383Z,100772.87
2023-11-22T16:27:25.684Z,100781.59
2023-11-22T16:30:31.443Z,100775.78
2023-11-22T16:33:34.821Z,100778.28
2023-11-22T16:36:37.625Z,100783.44
2023-11-22T16:39:39.988Z,100776.84
2023-11-22T16:42:42.757Z,100783.94
2023-11-22T16:45:49.205Z,100784.78
2023-11-22T16:48:55.463Z,100782.94
2023-11-22T16:51:57.931Z,100782.22
2023-11-22T16:55:01.273Z,100787.31
2023-11-22T16:58:04.469Z,100802.06
2023-11-22T17:01:07.405Z,100815.75
2023-11-22T17:04:12.877Z,100816.63
2023-11-22T17:07:16.037Z,100819.13
2023-11-22T17:10:19.166Z,100816.72
2023-11-22T17:13:22.199Z,100825.56
2023-11-22T17:16:25.403Z,100814.34
2023-11-22T17:19:28.216Z,100826.34
2023-11-22T17:22:33.257Z,100826.47
2023-11-22T17:25:36.082Z,100836.75
2023-11-22T17:28:41.404Z,100830.75
2023-11-22T17:31:46.548Z,100825.75
2023-11-22T17:34:49.003Z,100824.84
2023-11-22T17:37:54.122Z,100813.59
2023-11-22T17:40:56.545Z,100808.66
2023-11-22T17:43:59.417Z,100811.34
2023-11-22T17:47:02.109Z,100803.75
2023-11-22T17:50:06.436Z,100801.22
2023-11-22T17:53:11.719Z,100809.87
2023-11-22T17:56:14.407Z,100813.22
2023-11-22T17:59:17.329Z,100810.94
2023-11-22T18:02:23.661Z,100826.16
2023-11-22T18:05:28.925Z,100824.63
2023-11-22T18:08:31.297Z,100829.16
2023-11-22T18:11:34.048Z,100821.19
2023-11-22T18:14:39.810Z,100819.44
2023-11-22T18:17:43.039Z,100832.44
2023-11-22T18:20:46.437Z,100851.34
2023-11-22T18:23:49.447Z,100855.75
2023-11-22T18:26:54.097Z,100874.44
2023-11-22T18:29:56.850Z,100891.75
2023-11-22T18:32:59.321Z,100891.81
2023-11-22T18:36:02.706Z,100885.84
2023-11-22T18:39:08.365Z,100886.59
2023-11-22T18:42:11.284Z,100896.28
2023-11-22T18:45:14.006Z,100902.09
2023-11-22T18:48:17.768Z,100909.91
2023-11-22T18:51:25.950Z,100908.50
2023-11-22T18:54:28.718Z,100903.06
2023-11-22T18:57:31.132Z,100908.37
2023-11-22T19:00:36.476Z,100907.47
2023-11-22T19:03:38.888Z,100920.53
2023-11-22T19:06:41.788Z,100920.63
2023-11-22T19:09:44.198Z,100913.75
2023-11-22T19:12:47.459Z,100911.44
2023-11-22T19:15:52.272Z,100913.09
2023-11-22T19:18:57.887Z,100912.16
2023-11-22T19:22:01.004Z,100923.56
2023-11-22T19:25:07.601Z,100916.56
2023-11-22T19:28:16.479Z,100918.59
2023-11-22T19:31:21.308Z,100918.50
2023-11-22T19:34:23.875Z,100915.84
2023-11-22T19:37:33.167Z,100910.97
2023-11-22T19:40:46.903Z,100939.16
2023-11-22T19:43:51.747Z,100955.41
2023-11-22T19:46:57.007Z,100962.13
2023-11-22T19:49:59.920Z,100946.19
2023-11-22T19:53:04.920Z,100941.13
2023-11-22T19:56:10.519Z,100944.41
2023-11-22T19:59:13.095Z,100946.31
2023-11-22T20:02:17.893Z,100932.50
2023-11-22T20:05:26.540Z,100932.69
2023-11-22T20:08:36.369Z,100929.50
2023-11-22T20:11:59.258Z,100939.84
2023-11-22T20:15:11.320Z,100943.22
2023-11-22T20:18:29.105Z,100938.22
2023-11-22T20:21:43.906Z,100936.47
2023-11-22T20:28:24.437Z,100938.28
2023-11-22T20:31:31.227Z,100951.78
2023-11-22T20:34:46.599Z,100949.44
2023-11-22T20:37:56.730Z,100948.56
2023-11-22T20:41:06.106Z,100932.41
2023-11-22T20:44:45.532Z,100936.78
2023-11-22T20:47:54.729Z,100938.47
2023-11-22T20:51:10.080Z,100941.91
2023-11-22T20:54:37.987Z,100951.25
2023-11-22T20:58:24.362Z,100950.53
2023-11-22T21:01:30.141Z,100959.28
2023-11-22T21:04:53.156Z,100968.00
2023-11-22T21:08:19.535Z,100965.66
2023-11-22T21:11:34.818Z,100969.06
2023-11-22T21:14:44.891Z,100970.72
2023-11-22T21:17:50.849Z,100967.47
2023-11-22T21:21:10.340Z,100975.06
2023-11-22T21:24:24.095Z,100982.84
2023-11-22T21:27:36.974Z,100964.81
2023-11-22T21:30:43.682Z,100980.28
2023-11-22T21:33:51.933Z,100971.91
2023-11-22T21:37:04.565Z,100968.53
2023-11-22T21:40:23.781Z,100967.75
2023-11-22T21:43:32.917Z,100977.16
2023-11-22T21:46:48.203Z,100985.69
2023-11-22T21:49:54.375Z,100982.22
2023-11-22T21:52:59.212Z,100992.22
2023-11-22T21:56:22.647Z,101011.19
2023-11-22T21:59:33.631Z,101005.34
2023-11-22T22:02:47.291Z,101004.25
2023-11-22T22:06:04.544Z,101014.66
2023-11-22T22:09:22.298Z,101018.88
2023-11-22T22:12:39.599Z,101025.78
2023-11-22T22:15:58.687Z,101016.37
2023-11-22T22:19:07.961Z,101021.41
2023-11-22T22:22:20.638Z,101029.16
2023-11-22T22:25:32.473Z,101028.34
2023-11-22T22:28:49.385Z,101033.50
2023-11-22T22:32:10.317Z,101019.56
2023-11-22T22:35:18.200Z,101020.59
2023-11-22T22:38:38.500Z,101027.37
2023-11-22T22:41:48.076Z,101021.16
2023-11-22T22:45:17.821Z,101010.34
2023-11-22T22:48:34.357Z,101005.12
2023-11-22T22:52:03.414Z,100999.34
2023-11-22T22:55:16.652Z,100991.41
2023-11-22T22:58:40.545Z,100984.75
2023-11-22T23:01:54.400Z,100982.09
2023-11-22T23:05:12.725Z,100991.47
2023-11-22T23:08:34.180Z,100989.09
2023-11-22T23:11:54.467Z,100979.00
2023-11-22T23:15:05.993Z,100968.75
2023-11-22T23:18:17.630Z,100970.28
2023-11-22T23:21:47.341Z,100973.91
2023-11-22T23:25:06.190Z,100982.53
2023-11-22T23:28:19.099Z,100995.41
2023-11-22T23:31:31.986Z,100997.09
2023-11-22T23:34:45.025Z,100992.03
2023-11-22T23:37:59.954Z,100987.47
2023-11-22T23:41:15.269Z,100986.00
2023-11-22T23:44:34.272Z,100990.31
2023-11-22T23:47:43.718Z,100984.41
2023-11-22T23:50:57.484Z,100995.53
2023-11-22T23:54:13.345Z,100997.25
2023-11-22T23:57:23.653Z,100986.94
